Time;durP1;ratioP1;P1;durP2;ratioP2;P2;SDS_P1;SDS_P2;PMS_P1;PMS_P2;Temp;Humidity;BMP_temperature;BMP_pressure;BME280_temperature;BME280_humidity;BME280_pressure;Samples;Min_cycle;Max_cycle;Signal;HPM_P1;HPM_P2
2024/01/28 00:01:02;;;;;;;;;;;;;;;3.94;62.15;100697.63;4376147;32;35315;-84
2024/01/28 00:03:31;;;;;;;;;;;;;;;4.08;61.78;100702.84;4375618;32;34255;-86
2024/01/28 00:05:58;;;;;;;;;;;;;;;3.53;63.54;100701.00;4375353;32;33802;-85
2024/01/28 00:08:25;;;;;;;;;;;;;;;3.77;62.60;100705.13;4381194;32;33929;-84
2024/01/28 00:10:54;;;;;;;;;;;;;;;3.77;63.08;100700.00;4380833;32;33957;-84
2024/01/28 00:13:24;;;;;;;;;;;;;;;3.44;64.08;100710.63;4376871;32;34230;-85
2024/01/28 00:15:55;;;;;;;;;;;;;;;3.31;64.49;100701.25;4382361;32;34060;-84
2024/01/28 00:18:24;;;;;;;;;;;;;;;3.63;63.56;100701.66;4370539;32;34176;-85
2024/01/28 00:20:51;;;;;;;;;;;;;;;3.44;64.33;100708.06;4383428;32;34257;-84
2024/01/28 00:23:20;;;;;;;;;;;;;;;3.81;62.78;100701.97;4383821;32;34073;-84
2024/01/28 00:25:47;;;;;;;;;;;;;;;3.60;63.29;100703.16;4381832;32;33924;-84
2024/01/28 00:28:15;;;;;;;;;;;;;;;3.32;64.65;100714.16;4377643;32;35226;-84
2024/01/28 00:30:42;;;;;;;;;;;;;;;3.86;63.04;100707.38;4382332;32;35036;-85
2024/01/28 00:33:10;;;;;;;;;;;;;;;3.73;62.90;100708.28;4381427;32;33312;-84
2024/01/28 00:35:38;;;;;;;;;;;;;;;3.34;64.03;100709.16;4384004;32;34872;-84
2024/01/28 00:38:05;;;;;;;;;;;;;;;3.24;64.57;100719.56;4382076;32;33958;-84
2024/01/28 00:40:32;;;;;;;;;;;;;;;3.44;63.92;100720.88;4383568;32;33875;-84
2024/01/28 00:43:00;;;;;;;;;;;;;;;3.31;64.12;100722.66;4378322;32;32897;-85
2024/01/28 00:45:27;;;;;;;;;;;;;;;3.76;63.08;100733.25;4372930;32;34316;-85
2024/01/28 00:47:56;;;;;;;;;;;;;;;4.07;61.93;100736.13;4380907;32;34118;-86
2024/01/28 00:50:23;;;;;;;;;;;;;;;3.84;62.29;100738.09;4380932;32;32879;-86
2024/01/28 00:52:51;;;;;;;;;;;;;;;3.92;61.66;100737.69;4378415;32;33086;-86
2024/01/28 00:55:18;;;;;;;;;;;;;;;4.27;60.73;100738.25;4382987;32;35036;-86
2024/01/28 00:57:45;;;;;;;;;;;;;;;4.03;61.42;100736.72;4382861;32;35224;-86
2024/01/28 01:00:13;;;;;;;;;;;;;;;4.14;61.11;100723.75;4382144;32;34014;-86
2024/01/28 01:02:40;;;;;;;;;;;;;;;4.60;59.49;100730.88;4378461;32;33976;-86
2024/01/28 01:05:08;;;;;;;;;;;;;;;3.90;60.91;100729.88;4381900;32;33314;-85
2024/01/28 01:07:35;;;;;;;;;;;;;;;3.61;61.99;100730.59;4380284;32;34925;-86
2024/01/28 01:10:04;;;;;;;;;;;;;;;3.73;61.58;100733.94;4380938;32;34107;-87
2024/01/28 01:12:31;;;;;;;;;;;;;;;4.03;60.96;100726.44;4376011;32;31926;-86
2024/01/28 01:14:58;;;;;;;;;;;;;;;3.90;60.88;100737.59;4381246;32;34055;-86
2024/01/28 01:17:26;;;;;;;;;;;;;;;4.10;60.27;100742.34;4381788;32;35390;-86
2024/01/28 01:19:53;;;;;;;;;;;;;;;3.68;61.69;100754.97;4369562;32;34929;-86
2024/01/28 01:22:20;;;;;;;;;;;;;;;3.67;61.83;100756.63;4381929;32;33406;-85
2024/01/28 01:24:48;;;;;;;;;;;;;;;4.11;60.45;100756.03;4378361;32;34697;-86
2024/01/28 01:27:15;;;;;;;;;;;;;;;3.66;61.71;100755.72;4375073;32;33992;-85
2024/01/28 01:29:42;;;;;;;;;;;;;;;3.91;60.81;100747.09;4373852;32;34928;-86
2024/01/28 01:32:10;;;;;;;;;;;;;;;3.87;61.15;100752.81;4374318;32;34535;-84
2024/01/28 01:34:37;;;;;;;;;;;;;;;3.41;62.22;100754.91;4379776;32;35025;-86
2024/01/28 01:37:05;;;;;;;;;;;;;;;3.66;61.89;100749.72;4376824;32;34151;-85
2024/01/28 01:39:32;;;;;;;;;;;;;;;3.47;62.35;100746.72;4383127;32;34226;-86
2024/01/28 01:42:00;;;;;;;;;;;;;;;3.41;62.29;100745.56;4380318;32;33532;-86
2024/01/28 01:44:27;;;;;;;;;;;;;;;3.53;62.53;100744.59;4380837;32;34093;-86
2024/01/28 01:46:55;;;;;;;;;;;;;;;3.50;62.34;100737.56;4382049;32;34109;-86
2024/01/28 01:49:22;;;;;;;;;;;;;;;3.47;62.68;100746.72;4371031;32;33319;-85
2024/01/28 01:51:49;;;;;;;;;;;;;;;4.12;60.68;100742.41;4364715;32;33266;-86
2024/01/28 01:54:17;;;;;;;;;;;;;;;3.46;62.32;100757.78;4380364;32;33957;-86
2024/01/28 01:56:44;;;;;;;;;;;;;;;3.80;61.49;100746.38;4377377;32;34068;-85
2024/01/28 01:59:12;;;;;;;;;;;;;;;3.58;62.48;100748.34;4369379;32;34247;-86
2024/01/28 02:01:39;;;;;;;;;;;;;;;3.70;61.99;100749.13;4380903;32;33438;-85
2024/01/28 02:04:07;;;;;;;;;;;;;;;3.74;61.89;100755.34;4379521;32;34204;-86
2024/01/28 02:06:34;;;;;;;;;;;;;;;3.92;61.11;100745.41;4372938;32;34337;-86
2024/01/28 02:09:02;;;;;;;;;;;;;;;4.00;60.96;100751.91;4379927;32;33812;-86
2024/01/28 02:11:29;;;;;;;;;;;;;;;4.00;60.94;100744.22;4379610;32;33470;-85
2024/01/28 02:13:57;;;;;;;;;;;;;;;3.86;61.17;100754.47;4369064;32;34993;-85
2024/01/28 02:16:25;;;;;;;;;;;;;;;4.21;60.16;100743.00;4379773;32;34499;-86
2024/01/28 02:18:53;;;;;;;;;;;;;;;4.49;59.32;100747.31;4379356;32;33916;-86
2024/01/28 02:21:20;;;;;;;;;;;;;;;4.55;58.99;100761.44;4382313;32;33049;-85
2024/01/28 02:23:50;;;;;;;;;;;;;;;4.34;59.41;100762.63;4381924;32;33802;-85
2024/01/28 02:26:17;;;;;;;;;;;;;;;4.45;59.07;100765.87;4379544;32;34524;-85
2024/01/28 02:28:44;;;;;;;;;;;;;;;3.90;60.63;100769.28;4377052;32;34903;-86
2024/01/28 02:31:11;;;;;;;;;;;;;;;4.15;60.21;100773.41;4382104;32;33361;-86
2024/01/28 02:33:39;;;;;;;;;;;;;;;4.01;60.48;100772.53;4380720;32;34367;-84
2024/01/28 02:36:07;;;;;;;;;;;;;;;3.79;61.15;100777.97;4384540;32;33905;-86
2024/01/28 02:38:34;;;;;;;;;;;;;;;3.56;62.33;100780.66;4383865;32;34110;-86
2024/01/28 02:41:02;;;;;;;;;;;;;;;3.75;61.62;100783.69;4381189;32;32072;-85
2024/01/28 02:43:29;;;;;;;;;;;;;;;3.57;62.07;100782.47;4378667;32;34635;-86
2024/01/28 02:45:56;;;;;;;;;;;;;;;3.55;62.12;100791.72;4384242;32;34485;-87
2024/01/28 02:48:23;;;;;;;;;;;;;;;3.37;62.68;100792.28;4379722;32;34503;-86
2024/01/28 02:50:51;;;;;;;;;;;;;;;3.47;62.57;100791.19;4366289;32;33023;-86
2024/01/28 02:53:18;;;;;;;;;;;;;;;2.90;64.13;100795.03;4374684;32;34876;-86
2024/01/28 02:55:46;;;;;;;;;;;;;;;2.92;64.06;100790.91;4382584;32;34218;-88
2024/01/28 02:58:13;;;;;;;;;;;;;;;2.93;64.54;100794.38;4381983;32;33987;-86
2024/01/28 03:00:40;;;;;;;;;;;;;;;3.07;64.25;100793.66;4380421;32;33300;-86
2024/01/28 03:03:08;;;;;;;;;;;;;;;2.95;64.23;100789.34;4384227;32;32845;-87
2024/01/28 03:05:36;;;;;;;;;;;;;;;3.33;63.02;100777.47;4378771;32;34234;-86
2024/01/28 03:08:03;;;;;;;;;;;;;;;3.34;63.34;100786.94;4381267;32;34379;-85
2024/01/28 03:10:33;;;;;;;;;;;;;;;3.10;63.67;100781.03;4381225;32;33190;-85
2024/01/28 03:13:00;;;;;;;;;;;;;;;3.31;63.32;100785.84;4377197;32;34074;-87
2024/01/28 03:15:28;;;;;;;;;;;;;;;3.62;62.13;100791.34;4381192;32;34298;-86
2024/01/28 03:17:56;;;;;;;;;;;;;;;3.57;62.16;100787.59;4380108;32;33782;-85
2024/01/28 03:20:25;;;;;;;;;;;;;;;3.14;63.64;100794.94;4383950;32;34313;-85
2024/01/28 03:22:52;;;;;;;;;;;;;;;3.61;62.30;100795.59;4383153;32;35000;-85
2024/01/28 03:25:20;;;;;;;;;;;;;;;3.39;62.71;100779.56;4378867;32;34251;-86
2024/01/28 03:27:47;;;;;;;;;;;;;;;3.61;61.95;100774.19;4383036;32;33490;-84
2024/01/28 03:30:15;;;;;;;;;;;;;;;3.23;62.88;100789.56;4380756;32;34807;-85
2024/01/28 03:32:43;;;;;;;;;;;;;;;3.11;63.58;100797.31;4380981;32;34042;-84
2024/01/28 03:35:12;;;;;;;;;;;;;;;3.22;63.26;100795.44;4383281;32;32675;-86
2024/01/28 03:37:39;;;;;;;;;;;;;;;3.07;63.79;100802.97;4380572;32;34971;-84
2024/01/28 03:40:07;;;;;;;;;;;;;;;3.56;62.49;100817.47;4376619;32;33195;-84
2024/01/28 03:42:34;;;;;;;;;;;;;;;3.44;62.77;100820.88;4384050;32;34872;-86
2024/01/28 03:45:01;;;;;;;;;;;;;;;3.70;61.83;100822.63;4383044;32;34754;-85
2024/01/28 03:47:30;;;;;;;;;;;;;;;4.04;60.43;100818.03;4380936;32;34369;-87
2024/01/28 03:49:57;;;;;;;;;;;;;;;3.25;62.58;100818.75;4381285;32;32750;-85
2024/01/28 03:52:24;;;;;;;;;;;;;;;3.62;61.97;100828.12;4375565;32;33731;-85
2024/01/28 03:54:52;;;;;;;;;;;;;;;3.86;60.67;100830.53;4380675;32;33845;-84
2024/01/28 03:57:20;;;;;;;;;;;;;;;3.82;60.18;100820.88;4383427;32;34509;-84
2024/01/28 03:59:47;;;;;;;;;;;;;;;3.74;60.94;100822.03;4384135;32;33429;-85
2024/01/28 04:02:15;;;;;;;;;;;;;;;3.93;60.10;100822.47;4376769;32;34030;-86
2024/01/28 04:04:42;;;;;;;;;;;;;;;3.69;60.44;100819.19;4383900;32;35194;-85
2024/01/28 04:07:10;;;;;;;;;;;;;;;4.26;59.00;100817.75;4385067;32;34350;-84
2024/01/28 04:09:37;;;;;;;;;;;;;;;4.22;59.02;100828.62;4377188;32;33557;-86
2024/01/28 04:12:05;;;;;;;;;;;;;;;4.44;58.58;100828.31;4381106;32;33767;-84
2024/01/28 04:14:33;;;;;;;;;;;;;;;4.35;58.14;100833.72;4380825;32;34380;-85
2024/01/28 04:17:00;;;;;;;;;;;;;;;4.41;57.58;100826.44;4380842;32;34911;-85
2024/01/28 04:19:28;;;;;;;;;;;;;;;4.54;57.17;100825.53;4367610;32;32039;-85
2024/01/28 04:21:55;;;;;;;;;;;;;;;4.04;58.70;100829.19;4381139;32;35075;-85
2024/01/28 04:24:22;;;;;;;;;;;;;;;3.76;59.22;100828.19;4382087;32;34089;-86
2024/01/28 04:26:52;;;;;;;;;;;;;;;4.15;58.23;100827.31;4379432;32;34581;-86
2024/01/28 04:29:19;;;;;;;;;;;;;;;4.14;57.84;100835.81;4375952;32;32810;-86
2024/01/28 04:31:47;;;;;;;;;;;;;;;3.47;60.83;100842.47;4378669;32;34191;-87
2024/01/28 04:34:14;;;;;;;;;;;;;;;3.46;60.83;100847.53;4380988;32;33774;-86
2024/01/28 04:36:42;;;;;;;;;;;;;;;3.57;60.37;100849.12;4377721;32;33152;-85
2024/01/28 04:39:09;;;;;;;;;;;;;;;3.35;61.56;100847.66;4378823;32;33008;-86
2024/01/28 04:41:37;;;;;;;;;;;;;;;3.31;61.63;100855.06;4381987;32;33474;-87
2024/01/28 04:44:04;;;;;;;;;;;;;;;3.06;62.78;100865.28;4381263;32;34526;-86
2024/01/28 04:46:31;;;;;;;;;;;;;;;3.27;62.73;100869.31;4380991;32;33875;-88
2024/01/28 04:48:58;;;;;;;;;;;;;;;3.50;61.62;100864.88;4381098;32;33640;-86
2024/01/28 04:51:29;;;;;;;;;;;;;;;3.30;61.92;100869.53;4380540;32;34899;-85
2024/01/28 04:53:58;;;;;;;;;;;;;;;3.52;61.31;100871.88;4376444;32;35251;-86
2024/01/28 04:56:26;;;;;;;;;;;;;;;3.68;60.55;100873.84;4381288;32;34738;-86
2024/01/28 04:58:53;;;;;;;;;;;;;;;3.24;62.61;100879.38;4383461;32;33222;-87
2024/01/28 05:01:20;;;;;;;;;;;;;;;2.85;64.92;100875.81;4377646;32;34595;-85
2024/01/28 05:03:48;;;;;;;;;;;;;;;3.17;64.06;100883.16;4382733;32;34487;-87
2024/01/28 05:06:15;;;;;;;;;;;;;;;2.82;65.25;100875.59;4378468;32;34007;-87
2024/01/28 05:08:43;;;;;;;;;;;;;;;3.04;64.80;100884.78;4375871;32;34293;-86
2024/01/28 05:11:10;;;;;;;;;;;;;;;2.85;65.43;100878.38;4382715;32;34048;-85
2024/01/28 05:13:37;;;;;;;;;;;;;;;3.03;65.52;100885.53;4365188;32;35247;-86
2024/01/28 05:16:05;;;;;;;;;;;;;;;2.85;66.14;100880.94;4374298;32;34934;-86
2024/01/28 05:18:32;;;;;;;;;;;;;;;2.72;66.63;100879.94;4380220;32;33122;-86
2024/01/28 05:21:00;;;;;;;;;;;;;;;2.98;66.26;100874.97;4379844;32;34946;-87
2024/01/28 05:23:28;;;;;;;;;;;;;;;2.90;66.28;100869.31;4381278;32;34404;-85
2024/01/28 05:25:57;;;;;;;;;;;;;;;3.27;65.24;100878.69;4381051;32;34302;-87
2024/01/28 05:28:25;;;;;;;;;;;;;;;2.89;66.02;100875.22;4381709;32;33278;-86
2024/01/28 05:30:52;;;;;;;;;;;;;;;2.68;67.11;100877.16;4382900;32;34004;-86
2024/01/28 05:33:20;;;;;;;;;;;;;;;3.09;65.81;100878.31;4373997;32;33214;-87
2024/01/28 05:35:47;;;;;;;;;;;;;;;3.02;66.64;100878.66;4380469;32;35099;-87
2024/01/28 05:38:15;;;;;;;;;;;;;;;2.95;66.61;100886.69;4375400;32;33015;-85
2024/01/28 05:40:42;;;;;;;;;;;;;;;3.51;64.93;100880.38;4382580;32;34799;-87
2024/01/28 05:43:09;;;;;;;;;;;;;;;3.10;66.42;100874.94;4381907;32;33621;-86
2024/01/28 05:45:36;;;;;;;;;;;;;;;2.92;67.37;100885.69;4380457;32;34297;-86
2024/01/28 05:48:04;;;;;;;;;;;;;;;2.71;68.00;100884.16;4381414;32;33520;-86
2024/01/28 05:50:31;;;;;;;;;;;;;;;2.96;67.37;100878.25;4379197;32;33809;-87
2024/01/28 05:52:59;;;;;;;;;;;;;;;2.98;67.36;100880.09;4381586;32;34123;-86
2024/01/28 05:55:26;;;;;;;;;;;;;;;2.98;67.83;100879.22;4369380;32;33637;-86
2024/01/28 05:57:54;;;;;;;;;;;;;;;2.79;68.42;100892.41;4384396;32;33927;-85
2024/01/28 06:00:22;;;;;;;;;;;;;;;3.14;67.33;100882.97;4384528;32;34122;-85
2024/01/28 06:02:49;;;;;;;;;;;;;;;2.96;68.01;100886.81;4383379;32;32707;-85
2024/01/28 06:05:16;;;;;;;;;;;;;;;2.90;68.13;100887.25;4380451;32;34567;-86
2024/01/28 06:07:43;;;;;;;;;;;;;;;2.73;69.20;100902.19;4381051;32;33199;-86
2024/01/28 06:10:11;;;;;;;;;;;;;;;2.73;69.11;100903.12;4386254;32;34394;-86
2024/01/28 06:12:38;;;;;;;;;;;;;;;2.96;68.32;100914.09;4383366;32;33848;-86
2024/01/28 06:15:08;;;;;;;;;;;;;;;2.78;69.12;100917.12;4382450;32;33950;-86
2024/01/28 06:17:39;;;;;;;;;;;;;;;2.97;68.40;100916.75;4383843;32;33470;-86
2024/01/28 06:20:06;;;;;;;;;;;;;;;2.81;69.07;100916.47;4382101;32;34399;-85
2024/01/28 06:22:34;;;;;;;;;;;;;;;2.41;70.41;100926.38;4381686;32;34830;-84
2024/01/28 06:25:02;;;;;;;;;;;;;;;2.60;70.10;100915.78;4366001;32;34493;-85
2024/01/28 06:27:30;;;;;;;;;;;;;;;2.77;69.81;100915.34;4371714;32;34058;-86
2024/01/28 06:29:57;;;;;;;;;;;;;;;2.30;71.53;100924.69;4382796;32;33392;-88
2024/01/28 06:32:26;;;;;;;;;;;;;;;2.25;71.63;100934.59;4371295;32;35216;-86
2024/01/28 06:34:53;;;;;;;;;;;;;;;2.51;70.95;100936.50;4375931;32;34005;-85
2024/01/28 06:37:20;;;;;;;;;;;;;;;2.68;70.11;100927.47;4381826;32;33311;-85
2024/01/28 06:39:51;;;;;;;;;;;;;;;2.72;70.05;100932.03;4381506;32;35077;-85
2024/01/28 06:42:18;;;;;;;;;;;;;;;3.10;68.90;100932.22;4379966;32;34368;-86
2024/01/28 06:44:47;;;;;;;;;;;;;;;2.94;69.03;100929.34;4381358;32;34280;-85
2024/01/28 06:47:14;;;;;;;;;;;;;;;2.77;69.96;100935.84;4382052;32;33407;-85
2024/01/28 06:49:41;;;;;;;;;;;;;;;2.92;70.05;100934.38;4375859;32;34198;-85
2024/01/28 06:52:09;;;;;;;;;;;;;;;3.26;68.44;100944.47;4383850;32;35138;-86
2024/01/28 06:54:38;;;;;;;;;;;;;;;2.87;69.66;100943.38;4382148;32;35042;-86
2024/01/28 06:57:05;;;;;;;;;;;;;;;3.02;69.62;100947.84;4370497;32;34772;-86
2024/01/28 06:59:32;;;;;;;;;;;;;;;2.86;70.13;100953.53;4380768;32;33948;-86
2024/01/28 07:02:00;;;;;;;;;;;;;;;2.87;70.30;100958.75;4381836;32;33469;-86
2024/01/28 07:04:27;;;;;;;;;;;;;;;3.01;69.79;100961.44;4382913;32;33041;-84
2024/01/28 07:06:54;;;;;;;;;;;;;;;3.13;69.09;100962.28;4381651;32;34138;-85
2024/01/28 07:09:22;;;;;;;;;;;;;;;3.30;69.01;100959.25;4373510;32;34184;-86
2024/01/28 07:11:49;;;;;;;;;;;;;;;2.87;69.93;100958.75;4383706;32;35312;-85
2024/01/28 07:14:17;;;;;;;;;;;;;;;2.82;70.45;100970.34;4381835;32;34302;-86
2024/01/28 07:16:44;;;;;;;;;;;;;;;2.77;70.74;100971.69;4381789;32;33352;-86
2024/01/28 07:19:11;;;;;;;;;;;;;;;3.07;69.91;100972.09;4382894;32;33862;-85
2024/01/28 07:21:40;;;;;;;;;;;;;;;3.24;69.37;100975.87;4384407;32;34519;-85
2024/01/28 07:24:08;;;;;;;;;;;;;;;3.08;69.85;100976.47;4376071;32;34204;-86
2024/01/28 07:26:35;;;;;;;;;;;;;;;2.91;70.74;100975.25;4371189;32;34255;-86
2024/01/28 07:29:03;;;;;;;;;;;;;;;3.25;69.58;100978.53;4375820;32;34238;-84
2024/01/28 07:31:31;;;;;;;;;;;;;;;2.97;70.92;100983.38;4381389;32;34716;-85
2024/01/28 07:33:58;;;;;;;;;;;;;;;3.42;69.34;100983.19;4381677;32;34401;-85
2024/01/28 07:36:25;;;;;;;;;;;;;;;2.84;70.88;100989.28;4384020;32;32861;-86
2024/01/28 07:38:53;;;;;;;;;;;;;;;3.10;70.58;100983.47;4370553;32;34331;-86
2024/01/28 07:41:23;;;;;;;;;;;;;;;3.05;70.80;100989.94;4381678;32;33833;-87
2024/01/28 07:43:53;;;;;;;;;;;;;;;2.99;70.67;100975.78;4381054;32;34387;-87
2024/01/28 07:46:21;;;;;;;;;;;;;;;3.06;70.58;100980.56;4382696;32;33487;-86
2024/01/28 07:48:48;;;;;;;;;;;;;;;3.09;70.71;100980.81;4383870;32;35047;-85
2024/01/28 07:51:16;;;;;;;;;;;;;;;3.03;70.87;100980.34;4382685;32;35322;-86
2024/01/28 07:53:43;;;;;;;;;;;;;;;3.20;69.98;100982.47;4381351;32;34262;-86
2024/01/28 07:56:15;;;;;;;;;;;;;;;3.37;69.71;100983.63;4381759;32;33543;-85
2024/01/28 07:58:42;;;;;;;;;;;;;;;3.45;69.36;100979.03;4378356;32;35064;-86
2024/01/28 08:01:09;;;;;;;;;;;;;;;3.00;71.02;100986.16;4381171;32;35249;-84
2024/01/28 08:03:37;;;;;;;;;;;;;;;2.97;71.60;100991.06;4367725;32;34259;-84
2024/01/28 08:06:04;;;;;;;;;;;;;;;3.03;71.07;100985.47;4384030;32;33352;-84
2024/01/28 08:08:32;;;;;;;;;;;;;;;3.15;71.13;100996.63;4381223;32;33663;-84
2024/01/28 08:11:00;;;;;;;;;;;;;;;3.26;70.48;100990.59;4368255;32;34394;-84
2024/01/28 08:13:27;;;;;;;;;;;;;;;3.28;70.67;100996.69;4367026;32;34900;-84
2024/01/28 08:16:01;;;;;;;;;;;;;;;3.53;69.31;100994.19;4382052;32;33578;-84
2024/01/28 08:18:29;;;;;;;;;;;;;;;3.80;68.67;100987.53;4382146;32;33953;-84
2024/01/28 08:20:56;;;;;;;;;;;;;;;3.49;69.80;100994.78;4368080;32;34380;-85
2024/01/28 08:23:24;;;;;;;;;;;;;;;3.59;69.84;101006.56;4379175;32;34862;-84
2024/01/28 08:25:51;;;;;;;;;;;;;;;3.53;69.80;101018.97;4376195;32;33779;-84
2024/01/28 08:28:19;;;;;;;;;;;;;;;3.81;69.08;101022.66;4374782;32;34169;-84
2024/01/28 08:30:46;;;;;;;;;;;;;;;4.10;67.57;101019.53;4375256;32;34186;-84
2024/01/28 08:33:14;;;;;;;;;;;;;;;4.06;67.54;101027.81;4381719;32;34205;-84
2024/01/28 08:35:43;;;;;;;;;;;;;;;4.02;67.77;101024.94;4382956;32;33958;-83
2024/01/28 08:38:10;;;;;;;;;;;;;;;4.39;66.59;101026.63;4382789;32;34100;-83
2024/01/28 08:40:38;;;;;;;;;;;;;;;3.93;67.86;101016.59;4374477;32;35276;-85
2024/01/28 08:43:07;;;;;;;;;;;;;;;3.78;68.93;101014.72;4383569;32;33608;-85
2024/01/28 08:45:36;;;;;;;;;;;;;;;3.53;69.67;101013.84;4373014;32;33060;-85
2024/01/28 08:48:04;;;;;;;;;;;;;;;4.03;67.99;101009.63;4381158;32;34052;-86
2024/01/28 08:50:31;;;;;;;;;;;;;;;3.88;68.24;101012.03;4379190;32;34017;-83
2024/01/28 08:52:58;;;;;;;;;;;;;;;4.00;68.23;101017.09;4377911;32;33929;-85
2024/01/28 08:55:26;;;;;;;;;;;;;;;3.96;68.45;101029.63;4380950;32;32989;-85
2024/01/28 08:57:53;;;;;;;;;;;;;;;4.30;67.35;101033.72;4375507;32;33906;-84
2024/01/28 09:00:20;;;;;;;;;;;;;;;4.26;67.19;101039.41;4381143;32;33968;-86
2024/01/28 09:02:49;;;;;;;;;;;;;;;4.68;65.85;101050.78;4376275;32;34955;-85
2024/01/28 09:05:16;;;;;;;;;;;;;;;4.94;64.70;101049.94;4381415;32;33514;-86
2024/01/28 09:07:45;;;;;;;;;;;;;;;4.54;66.28;101054.13;4381181;32;33655;-86
2024/01/28 09:10:13;;;;;;;;;;;;;;;4.42;66.55;101063.56;4381348;32;34060;-85
2024/01/28 09:12:40;;;;;;;;;;;;;;;4.46;66.24;101060.41;4380329;32;33552;-87
2024/01/28 09:15:07;;;;;;;;;;;;;;;4.49;66.41;101066.66;4380804;32;33566;-87
2024/01/28 09:17:35;;;;;;;;;;;;;;;4.79;65.00;101064.34;4379671;32;34119;-87
2024/01/28 09:20:02;;;;;;;;;;;;;;;4.62;66.11;101063.22;4374479;32;34580;-86
2024/01/28 09:22:33;;;;;;;;;;;;;;;4.70;65.97;101062.06;4374403;32;34080;-86
2024/01/28 09:25:03;;;;;;;;;;;;;;;4.84;65.35;101063.84;4363006;32;33321;-87
2024/01/28 09:27:30;;;;;;;;;;;;;;;5.12;64.24;101064.00;4377553;32;35097;-86
2024/01/28 09:29:57;;;;;;;;;;;;;;;4.96;65.31;101068.91;4380662;32;34205;-87
2024/01/28 09:32:25;;;;;;;;;;;;;;;4.92;65.30;101071.19;4377427;32;35042;-84
2024/01/28 09:34:52;;;;;;;;;;;;;;;4.84;65.50;101073.25;4376729;32;32945;-87
2024/01/28 09:37:20;;;;;;;;;;;;;;;4.94;65.28;101079.91;4383561;32;33875;-86
2024/01/28 09:39:49;;;;;;;;;;;;;;;5.00;64.36;101077.72;4382255;32;34031;-85
2024/01/28 09:42:19;;;;;;;;;;;;;;;5.09;64.43;101078.31;4381349;32;35127;-85
2024/01/28 09:44:49;;;;;;;;;;;;;;;5.00;64.53;101082.84;4369001;32;34301;-85
2024/01/28 09:47:18;;;;;;;;;;;;;;;5.13;64.18;101090.59;4373546;32;35156;-85
2024/01/28 09:49:48;;;;;;;;;;;;;;;5.37;63.48;101092.16;4376594;32;34281;-84
2024/01/28 09:52:16;;;;;;;;;;;;;;;5.39;63.83;101079.41;4366716;32;35161;-85
2024/01/28 09:54:47;;;;;;;;;;;;;;;5.32;64.10;101085.84;4383425;32;33397;-85
2024/01/28 09:57:14;;;;;;;;;;;;;;;5.34;63.99;101088.50;4377445;32;34194;-86
2024/01/28 09:59:42;;;;;;;;;;;;;;;5.75;62.30;101087.66;4378917;32;35209;-88
2024/01/28 10:02:10;;;;;;;;;;;;;;;5.73;62.37;101094.44;4378353;32;35228;-86
2024/01/28 10:04:37;;;;;;;;;;;;;;;5.96;62.15;101085.59;4366173;32;33565;-86
2024/01/28 10:07:07;;;;;;;;;;;;;;;6.27;61.43;101084.09;4374012;32;34779;-86
2024/01/28 10:09:34;;;;;;;;;;;;;;;5.93;62.39;101080.25;4374228;32;34201;-87
2024/01/28 10:12:02;;;;;;;;;;;;;;;6.25;61.34;101080.53;4378108;32;33633;-88
2024/01/28 10:14:29;;;;;;;;;;;;;;;6.55;59.97;101083.16;4373491;32;33400;-85
2024/01/28 10:16:56;;;;;;;;;;;;;;;6.28;61.18;101082.41;4376166;32;34925;-87
2024/01/28 10:19:24;;;;;;;;;;;;;;;6.44;60.75;101086.78;4365853;32;35862;-87
2024/01/28 10:21:52;;;;;;;;;;;;;;;6.83;59.03;101086.56;4375581;32;34196;-89
2024/01/28 10:24:19;;;;;;;;;;;;;;;6.69;59.53;101084.87;4378719;32;34353;-84
2024/01/28 10:26:47;;;;;;;;;;;;;;;6.73;59.03;101068.78;4372846;32;35348;-84
2024/01/28 10:29:14;;;;;;;;;;;;;;;6.59;59.07;101072.22;4375533;32;33948;-87
2024/01/28 10:31:42;;;;;;;;;;;;;;;7.16;57.76;101058.38;4381854;32;33847;-84
2024/01/28 10:34:09;;;;;;;;;;;;;;;7.12;57.89;101069.28;4379746;32;34312;-84
2024/01/28 10:36:39;;;;;;;;;;;;;;;6.65;59.15;101058.81;4375752;32;33755;-85
2024/01/28 10:39:08;;;;;;;;;;;;;;;6.57;59.05;101053.22;4385221;32;35169;-85
2024/01/28 10:41:38;;;;;;;;;;;;;;;6.65;59.25;101056.25;4366267;32;34788;-86
2024/01/28 10:44:07;;;;;;;;;;;;;;;6.93;58.85;101051.00;4366618;32;33191;-85
2024/01/28 10:46:34;;;;;;;;;;;;;;;6.98;58.67;101049.59;4375854;32;34276;-87
2024/01/28 10:49:05;;;;;;;;;;;;;;;7.30;57.25;101041.06;4381134;32;34455;-86
2024/01/28 10:51:33;;;;;;;;;;;;;;;7.65;56.10;101043.03;4371410;32;34784;-85
2024/01/28 10:54:02;;;;;;;;;;;;;;;7.47;56.91;101032.59;4380860;32;34099;-87
2024/01/28 10:56:30;;;;;;;;;;;;;;;7.71;56.20;101027.84;4368643;32;33850;-85
2024/01/28 10:58:57;;;;;;;;;;;;;;;7.39;57.02;101035.56;4378207;32;34438;-85
2024/01/28 11:01:25;;;;;;;;;;;;;;;7.65;56.51;101024.06;4380624;32;33854;-85
2024/01/28 11:03:53;;;;;;;;;;;;;;;7.66;56.42;101019.00;4380088;32;32984;-85
2024/01/28 11:06:27;;;;;;;;;;;;;;;7.28;57.38;101032.38;4376193;32;34848;-86
2024/01/28 11:08:55;;;;;;;;;;;;;;;7.12;57.83;101032.28;4377074;32;35353;-87
2024/01/28 11:11:22;;;;;;;;;;;;;;;7.68;56.43;101029.38;4378233;32;34554;-85
2024/01/28 11:13:49;;;;;;;;;;;;;;;7.17;57.57;101036.94;4378308;32;32980;-85
2024/01/28 11:16:19;;;;;;;;;;;;;;;6.96;57.87;101039.16;4380193;32;33898;-86
2024/01/28 11:19:04;;;;;;;;;;;;;;;7.49;56.50;101023.22;4379195;32;35356;-87
2024/01/28 11:21:32;;;;;;;;;;;;;;;7.68;56.11;101030.28;4378710;32;35361;-86
2024/01/28 11:23:59;;;;;;;;;;;;;;;7.22;57.35;101037.19;4381057;32;33339;-84
2024/01/28 11:26:26;;;;;;;;;;;;;;;7.47;56.89;101026.53;4383140;32;34762;-86
2024/01/28 11:28:54;;;;;;;;;;;;;;;7.35;56.92;101028.41;4377938;32;34532;-86
2024/01/28 11:31:25;;;;;;;;;;;;;;;7.18;57.16;101035.22;4382917;32;34912;-84
2024/01/28 11:33:52;;;;;;;;;;;;;;;7.19;57.54;101032.72;4382357;32;32870;-86
2024/01/28 11:36:24;;;;;;;;;;;;;;;7.25;57.34;101021.88;4380986;32;35138;-88
2024/01/28 11:38:53;;;;;;;;;;;;;;;7.07;57.55;101021.72;4378487;32;35735;-86
2024/01/28 11:41:20;;;;;;;;;;;;;;;7.55;56.35;101020.97;4370225;32;36904;-88
2024/01/28 11:43:47;;;;;;;;;;;;;;;7.82;55.43;101019.81;4378985;32;34005;-87
2024/01/28 11:46:14;;;;;;;;;;;;;;;8.18;54.67;101014.00;4382269;32;33727;-87
2024/01/28 11:48:44;;;;;;;;;;;;;;;8.17;54.87;101006.16;4376872;32;34399;-85
2024/01/28 11:51:12;;;;;;;;;;;;;;;7.60;55.77;101008.31;4383374;32;34092;-86
2024/01/28 11:53:42;;;;;;;;;;;;;;;7.73;55.62;101005.59;4386916;32;33305;-85
2024/01/28 11:56:09;;;;;;;;;;;;;;;7.98;54.89;101012.94;4370912;32;33851;-86
2024/01/28 11:58:39;;;;;;;;;;;;;;;7.49;55.35;101018.06;4368043;32;34398;-84
2024/01/28 12:01:07;;;;;;;;;;;;;;;7.43;54.97;101012.59;4365287;32;34006;-85
2024/01/28 12:03:34;;;;;;;;;;;;;;;7.60;55.19;101010.03;4377551;32;34157;-85
2024/01/28 12:06:01;;;;;;;;;;;;;;;7.60;55.08;101010.03;4382706;32;34217;-86
2024/01/28 12:08:29;;;;;;;;;;;;;;;7.75;54.29;101006.56;4367965;32;34381;-86
2024/01/28 12:11:00;;;;;;;;;;;;;;;7.73;53.96;101008.19;4381398;32;35066;-84
2024/01/28 12:13:28;;;;;;;;;;;;;;;7.60;54.48;101005.75;4380172;32;34013;-85
2024/01/28 12:15:57;;;;;;;;;;;;;;;7.74;54.68;101007.38;4370146;32;35279;-85
2024/01/28 12:18:31;;;;;;;;;;;;;;;7.78;54.94;101011.91;4374744;32;34140;-85
2024/01/28 12:20:59;;;;;;;;;;;;;;;7.80;54.78;101005.12;4377715;32;34218;-85
2024/01/28 12:23:28;;;;;;;;;;;;;;;8.23;53.10;101001.31;4376421;32;34022;-85
2024/01/28 12:25:55;;;;;;;;;;;;;;;8.23;53.31;101004.78;4374402;32;34875;-85
2024/01/28 12:28:23;;;;;;;;;;;;;;;7.97;53.39;100999.97;4377370;32;34059;-87
2024/01/28 12:30:52;;;;;;;;;;;;;;;8.32;52.80;101000.91;4389104;32;33639;-82
2024/01/28 12:33:20;;;;;;;;;;;;;;;8.45;52.22;101005.94;4383425;32;33435;-86
2024/01/28 12:35:47;;;;;;;;;;;;;;;8.38;52.13;101001.25;4374613;32;34122;-85
2024/01/28 12:38:14;;;;;;;;;;;;;;;8.63;51.57;100999.06;4382479;32;34053;-85
2024/01/28 12:40:42;;;;;;;;;;;;;;;8.32;52.06;100995.72;4386133;32;34931;-85
2024/01/28 12:43:09;;;;;;;;;;;;;;;8.49;51.10;100995.81;4383868;32;33565;-86
2024/01/28 12:45:37;;;;;;;;;;;;;;;7.77;53.38;100999.81;4381857;32;34927;-85
2024/01/28 12:48:04;;;;;;;;;;;;;;;8.39;51.40;101003.03;4384708;32;35327;-84
2024/01/28 12:50:35;;;;;;;;;;;;;;;8.06;51.88;101000.44;4381097;32;33861;-86